createdAt,value
2023-03-14T00:01:17.442Z,19.23
2023-03-14T00:03:45.052Z,19.17
2023-03-14T00:06:12.466Z,19.13
2023-03-14T00:08:40.033Z,19.12
2023-03-14T00:11:12.980Z,19.12
2023-03-14T00:13:40.041Z,19.07
2023-03-14T00:16:09.584Z,19.06
2023-03-14T00:18:37.349Z,19.03
2023-03-14T00:21:06.226Z,19.02
2023-03-14T00:23:36.169Z,18.96
2023-03-14T00:26:14.700Z,18.97
2023-03-14T00:28:42.848Z,18.97
2023-03-14T00:31:12.370Z,18.95
2023-03-14T00:33:41.405Z,18.94
2023-03-14T00:36:12.159Z,18.93
2023-03-14T00:38:41.767Z,18.91
2023-03-14T00:41:11.338Z,18.90
2023-03-14T00:43:38.375Z,18.84
2023-03-14T00:46:06.103Z,18.76
2023-03-14T00:48:33.344Z,18.61
2023-03-14T00:51:01.994Z,18.39
2023-03-14T00:53:28.928Z,18.17
2023-03-14T00:55:55.916Z,17.96
2023-03-14T00:58:23.118Z,17.83
2023-03-14T01:00:50.030Z,17.72
2023-03-14T01:03:17.979Z,17.55
2023-03-14T01:05:45.084Z,17.43
2023-03-14T01:08:12.996Z,17.42
2023-03-14T01:10:41.570Z,17.28
2023-03-14T01:13:09.261Z,17.16
2023-03-14T01:15:38.522Z,17.19
2023-03-14T01:18:05.613Z,17.17
2023-03-14T01:20:32.786Z,17.01
2023-03-14T01:22:59.812Z,16.92
2023-03-14T01:25:27.329Z,16.88
2023-03-14T01:27:54.771Z,16.77
2023-03-14T01:30:22.575Z,16.70
2023-03-14T01:32:49.641Z,16.61
2023-03-14T01:35:17.071Z,16.61
2023-03-14T01:37:44.238Z,16.64
2023-03-14T01:40:17.556Z,16.54
2023-03-14T01:43:06.498Z,16.48
2023-03-14T01:46:08.089Z,16.39
2023-03-14T01:49:03.254Z,16.38
2023-03-14T01:51:53.701Z,16.37
2023-03-14T01:54:40.725Z,16.24
2023-03-14T01:57:44.135Z,16.26
2023-03-14T02:00:15.180Z,16.28
2023-03-14T02:02:52.453Z,16.17
2023-03-14T02:05:25.475Z,16.02
2023-03-14T02:08:01.306Z,15.92
2023-03-14T02:10:41.324Z,15.79
2023-03-14T02:13:11.934Z,15.75
2023-03-14T02:15:57.505Z,15.81
2023-03-14T02:18:43.041Z,15.78
2023-03-14T02:21:55.492Z,15.74
2023-03-14T02:24:33.659Z,15.78
2023-03-14T02:27:11.672Z,15.79
2023-03-14T02:30:04.555Z,15.94
2023-03-14T02:32:34.393Z,16.00
2023-03-14T02:35:06.770Z,15.94
2023-03-14T02:38:01.791Z,15.89
2023-03-14T02:40:33.885Z,15.90
2023-03-14T02:43:01.556Z,15.82
2023-03-14T02:45:48.195Z,15.80
2023-03-14T02:48:40.307Z,15.76
2023-03-14T02:51:09.232Z,15.60
2023-03-14T02:53:43.020Z,15.50
2023-03-14T02:56:14.256Z,15.67
2023-03-14T02:58:41.253Z,15.65
2023-03-14T03:01:28.120Z,15.76
2023-03-14T03:04:01.848Z,15.84
2023-03-14T03:06:28.894Z,15.88
2023-03-14T03:08:55.981Z,15.67
2023-03-14T03:11:26.005Z,15.71
2023-03-14T03:13:53.055Z,15.73
2023-03-14T03:16:24.916Z,15.78
2023-03-14T03:18:52.739Z,15.81
2023-03-14T03:21:24.443Z,15.85
2023-03-14T03:23:51.795Z,15.82
2023-03-14T03:26:18.698Z,15.81
2023-03-14T03:28:45.815Z,15.81
2023-03-14T03:31:14.669Z,15.66
2023-03-14T03:33:41.676Z,15.56
2023-03-14T03:36:10.101Z,15.54
2023-03-14T03:38:39.919Z,15.55
2023-03-14T03:41:07.924Z,15.46
2023-03-14T03:43:35.830Z,15.51
2023-03-14T03:46:06.328Z,15.53
2023-03-14T03:48:37.253Z,15.44
2023-03-14T03:51:06.138Z,15.49
2023-03-14T03:53:34.437Z,15.57
2023-03-14T03:56:06.707Z,15.61
2023-03-14T03:58:34.663Z,15.63
2023-03-14T04:01:02.874Z,15.71
2023-03-14T04:03:30.060Z,15.53
2023-03-14T04:06:04.905Z,15.55
2023-03-14T04:08:33.939Z,15.54
2023-03-14T04:11:04.451Z,15.54
2023-03-14T04:14:07.981Z,15.66
2023-03-14T04:16:39.207Z,15.71
2023-03-14T04:19:12.424Z,15.75
2023-03-14T04:21:41.725Z,15.76
2023-03-14T04:24:12.061Z,15.76
2023-03-14T04:26:39.332Z,15.82
2023-03-14T04:29:06.848Z,15.81
2023-03-14T04:31:33.910Z,15.81
2023-03-14T04:34:01.038Z,15.86
2023-03-14T04:36:39.148Z,15.81
2023-03-14T04:39:09.572Z,15.81
2023-03-14T04:41:40.196Z,15.83
2023-03-14T04:44:08.766Z,15.81
2023-03-14T04:46:36.396Z,15.79
2023-03-14T04:49:06.181Z,15.80
2023-03-14T04:51:33.217Z,15.76
2023-03-14T04:54:00.129Z,15.71
2023-03-14T04:56:27.140Z,15.69
2023-03-14T04:58:54.196Z,15.69
2023-03-14T05:01:21.848Z,15.74
2023-03-14T05:04:07.211Z,15.71
2023-03-14T05:07:02.806Z,15.70
2023-03-14T05:09:50.177Z,15.66
2023-03-14T05:12:40.129Z,15.57
2023-03-14T05:15:33.618Z,15.61
2023-03-14T05:18:29.803Z,15.62
2023-03-14T05:21:32.373Z,15.61
2023-03-14T05:24:25.354Z,15.59
2023-03-14T05:27:09.596Z,15.50
2023-03-14T05:29:59.297Z,15.53
2023-03-14T05:32:46.620Z,15.47
2023-03-14T05:35:13.547Z,15.46
2023-03-14T05:38:01.148Z,15.51
2023-03-14T05:40:35.540Z,15.48
2023-03-14T05:43:12.056Z,15.47
2023-03-14T05:46:08.674Z,15.44
2023-03-14T05:48:50.332Z,15.42
2023-03-14T05:51:36.002Z,15.36
2023-03-14T05:54:13.975Z,15.39
2023-03-14T05:57:01.077Z,15.35
2023-03-14T05:59:48.243Z,15.37
2023-03-14T06:02:35.133Z,15.37
2023-03-14T06:05:11.732Z,15.38
2023-03-14T06:07:38.938Z,15.39
2023-03-14T06:10:07.861Z,15.41
2023-03-14T06:12:35.010Z,15.49
2023-03-14T06:15:02.213Z,15.67
2023-03-14T06:17:29.350Z,15.93
2023-03-14T06:20:03.483Z,16.24
2023-03-14T06:22:32.087Z,16.58
2023-03-14T06:24:59.063Z,16.95
2023-03-14T06:27:26.914Z,17.33
2023-03-14T06:29:56.155Z,17.83
2023-03-14T06:32:24.382Z,18.29
2023-03-14T06:34:54.321Z,18.71
2023-03-14T06:37:21.504Z,19.10
2023-03-14T06:39:49.315Z,19.53
2023-03-14T06:42:28.050Z,19.93
2023-03-14T06:44:55.418Z,20.44
2023-03-14T06:47:22.385Z,20.89
2023-03-14T06:49:51.191Z,21.45
2023-03-14T06:52:18.998Z,21.78
2023-03-14T06:54:45.986Z,22.31
2023-03-14T06:57:12.982Z,22.64
2023-03-14T06:59:39.892Z,23.24
2023-03-14T07:02:12.791Z,23.78
2023-03-14T07:04:40.942Z,24.17
2023-03-14T07:07:08.126Z,24.68
2023-03-14T07:09:35.916Z,24.75
2023-03-14T07:12:05.290Z,25.36
2023-03-14T07:14:32.380Z,25.95
2023-03-14T07:17:00.774Z,26.33
2023-03-14T07:19:27.825Z,26.84
2023-03-14T07:21:55.753Z,27.42
2023-03-14T07:24:25.587Z,27.77
2023-03-14T07:29:21.794Z,28.31
2023-03-14T07:31:49.436Z,28.77
2023-03-14T07:34:20.666Z,29.08
2023-03-14T07:36:48.125Z,29.51
2023-03-14T07:39:14.991Z,29.70
2023-03-14T07:42:14.135Z,30.31
2023-03-14T07:44:54.296Z,30.72
2023-03-14T07:47:21.255Z,31.23
2023-03-14T07:49:48.163Z,31.39
2023-03-14T07:52:15.092Z,31.86
2023-03-14T07:54:41.968Z,32.26
2023-03-14T07:57:08.955Z,32.54
2023-03-14T07:59:35.948Z,32.73
2023-03-14T08:02:02.937Z,32.78
2023-03-14T08:04:34.873Z,33.17
2023-03-14T08:07:01.812Z,33.41
2023-03-14T08:09:28.908Z,34.02
2023-03-14T08:11:57.629Z,34.37
2023-03-14T08:14:25.760Z,34.54
2023-03-14T08:16:53.381Z,34.42
2023-03-14T08:19:21.368Z,34.89
2023-03-14T08:21:50.077Z,34.88
2023-03-14T08:24:17.887Z,35.58
2023-03-14T08:26:44.766Z,35.68
2023-03-14T08:29:13.972Z,35.84
2023-03-14T08:31:41.053Z,35.27
2023-03-14T08:34:08.483Z,36.01
2023-03-14T08:36:35.510Z,35.97
2023-03-14T08:39:02.768Z,35.93
2023-03-14T08:41:29.863Z,36.73
2023-03-14T08:43:56.916Z,36.98
2023-03-14T08:46:25.233Z,37.68
2023-03-14T08:48:52.190Z,38.01
2023-03-14T08:51:19.271Z,38.42
2023-03-14T08:53:46.181Z,38.59
2023-03-14T08:56:13.231Z,38.96
2023-03-14T08:58:40.468Z,39.37
2023-03-14T09:01:09.297Z,38.44
2023-03-14T09:03:36.559Z,38.92
2023-03-14T09:06:08.752Z,39.04
2023-03-14T09:08:38.121Z,39.06
2023-03-14T09:11:09.872Z,39.39
2023-03-14T09:13:37.367Z,39.81
2023-03-14T09:16:04.778Z,40.24
2023-03-14T09:18:31.726Z,40.44
2023-03-14T09:20:58.753Z,40.66
2023-03-14T09:23:25.797Z,40.18
2023-03-14T09:25:57.138Z,41.11
2023-03-14T09:28:24.691Z,40.82
2023-03-14T09:30:52.211Z,41.08
2023-03-14T09:33:19.217Z,41.37
2023-03-14T09:35:46.182Z,41.55
2023-03-14T09:38:13.176Z,41.76
2023-03-14T09:40:40.235Z,42.43
2023-03-14T09:43:07.182Z,42.75
2023-03-14T09:45:41.382Z,43.08
2023-03-14T09:48:20.340Z,43.15
2023-03-14T09:50:55.782Z,43.44
2023-03-14T09:53:29.474Z,43.76
2023-03-14T09:55:59.448Z,43.80
2023-03-14T09:58:27.834Z,43.89
2023-03-14T10:00:57.791Z,44.15
2023-03-14T10:03:33.925Z,43.88
2023-03-14T10:06:01.336Z,43.42
2023-03-14T10:08:28.293Z,43.67
2023-03-14T10:10:55.868Z,42.32
2023-03-14T10:13:28.987Z,42.87
2023-03-14T10:16:01.689Z,43.00
2023-03-14T10:18:31.440Z,43.69
2023-03-14T10:21:20.050Z,43.99
2023-03-14T10:23:49.706Z,44.16
2023-03-14T10:26:28.945Z,44.03
2023-03-14T10:29:12.291Z,44.27
2023-03-14T10:32:19.426Z,43.80
2023-03-14T10:35:04.124Z,42.98
2023-03-14T10:37:31.156Z,43.82
2023-03-14T10:40:06.850Z,43.83
2023-03-14T10:42:42.981Z,43.67
2023-03-14T10:45:43.486Z,43.70
2023-03-14T10:48:32.469Z,42.14
2023-03-14T10:51:20.466Z,42.19
2023-03-14T10:54:10.144Z,42.16
2023-03-14T10:56:38.457Z,41.94
2023-03-14T10:59:12.397Z,41.59
2023-03-14T11:01:56.769Z,41.10
2023-03-14T11:04:49.030Z,40.65
2023-03-14T11:07:27.695Z,40.43
2023-03-14T11:10:09.755Z,40.21
2023-03-14T11:12:48.737Z,39.94
2023-03-14T11:15:22.888Z,39.16
2023-03-14T11:18:14.780Z,37.81
2023-03-14T11:21:00.236Z,37.49
2023-03-14T11:23:46.106Z,37.28
2023-03-14T11:26:54.704Z,37.22
2023-03-14T11:29:30.418Z,36.49
2023-03-14T11:32:02.846Z,35.91
2023-03-14T11:34:37.686Z,35.27
2023-03-14T11:37:14.160Z,34.53
2023-03-14T11:39:46.231Z,33.65
2023-03-14T11:42:17.505Z,32.99
2023-03-14T11:44:49.371Z,32.25
2023-03-14T11:47:28.188Z,31.52
2023-03-14T11:50:02.801Z,30.48
2023-03-14T11:52:32.805Z,30.22
2023-03-14T11:55:20.463Z,29.73
2023-03-14T11:57:51.679Z,29.42
2023-03-14T12:00:22.912Z,29.05
2023-03-14T12:03:06.449Z,28.83
2023-03-14T12:05:54.613Z,28.80
2023-03-14T12:08:27.438Z,28.40
2023-03-14T12:10:59.466Z,28.09
2023-03-14T12:13:32.347Z,27.99
2023-03-14T12:16:01.450Z,27.85
2023-03-14T12:18:40.350Z,27.75
2023-03-14T12:21:09.416Z,27.67
2023-03-14T12:23:57.771Z,27.63
2023-03-14T12:26:44.398Z,27.80
2023-03-14T12:29:17.457Z,27.45
2023-03-14T12:32:22.686Z,27.45
2023-03-14T12:34:49.727Z,27.46
2023-03-14T12:37:54.108Z,27.24
2023-03-14T12:40:59.718Z,27.17
2023-03-14T12:43:30.697Z,26.95
2023-03-14T12:46:16.411Z,26.78
2023-03-14T12:48:46.564Z,26.79
2023-03-14T12:51:18.878Z,26.76
2023-03-14T12:53:55.044Z,26.73
2023-03-14T12:56:49.821Z,26.69
2023-03-14T12:59:41.880Z,26.57
2023-03-14T13:02:09.377Z,26.35
2023-03-14T13:05:24.341Z,26.38
2023-03-14T13:07:55.734Z,26.15
2023-03-14T13:10:23.756Z,26.15
2023-03-14T13:13:28.970Z,26.16
2023-03-14T13:16:01.414Z,25.97
2023-03-14T13:18:37.176Z,26.00
2023-03-14T13:21:14.094Z,25.90
2023-03-14T13:23:41.297Z,25.81
2023-03-14T13:26:16.198Z,25.90
2023-03-14T13:28:43.366Z,25.72
2023-03-14T13:31:23.738Z,25.74
2023-03-14T13:34:02.206Z,25.64
2023-03-14T13:36:29.720Z,25.66
2023-03-14T13:38:59.694Z,25.53
2023-03-14T13:41:28.601Z,25.49
2023-03-14T13:44:16.865Z,25.50
2023-03-14T13:46:44.058Z,25.45
2023-03-14T13:49:13.853Z,25.41
2023-03-14T13:51:41.446Z,25.33
2023-03-14T13:54:24.221Z,25.23
2023-03-14T13:57:04.724Z,25.23
2023-03-14T13:59:42.620Z,25.12
2023-03-14T14:02:18.449Z,25.16
2023-03-14T14:04:45.810Z,25.20
2023-03-14T14:07:19.702Z,25.21
2023-03-14T14:09:52.445Z,25.12
2023-03-14T14:12:30.209Z,25.04
2023-03-14T14:14:57.355Z,24.96
2023-03-14T14:17:42.191Z,24.83
2023-03-14T14:20:18.257Z,24.59
2023-03-14T14:22:45.903Z,24.60
2023-03-14T14:25:16.832Z,24.48
2023-03-14T14:27:48.598Z,24.60
2023-03-14T14:30:18.240Z,24.62
2023-03-14T14:32:49.909Z,24.63
2023-03-14T14:35:35.307Z,24.63
2023-03-14T14:38:04.027Z,24.55
2023-03-14T14:40:32.084Z,24.52
2023-03-14T14:43:06.699Z,24.42
2023-03-14T14:45:35.973Z,24.39
2023-03-14T14:48:02.803Z,24.39
2023-03-14T14:50:35.784Z,24.28
2023-03-14T14:53:27.309Z,24.12
2023-03-14T14:55:57.144Z,24.12
2023-03-14T14:58:26.769Z,24.09
2023-03-14T15:00:59.737Z,24.13
2023-03-14T15:03:32.179Z,24.04
2023-03-14T15:05:59.552Z,24.01
2023-03-14T15:08:28.888Z,23.94
2023-03-14T15:10:56.942Z,23.87
2023-03-14T15:13:24.468Z,23.92
2023-03-14T15:15:58.615Z,23.90
2023-03-14T15:18:31.012Z,23.98
2023-03-14T15:20:58.160Z,23.94
2023-03-14T15:23:25.275Z,23.98
2023-03-14T15:25:55.828Z,24.00
2023-03-14T15:28:23.163Z,23.99
2023-03-14T15:30:52.939Z,23.99
2023-03-14T15:33:20.049Z,23.92
2023-03-14T15:35:48.433Z,23.89
2023-03-14T15:38:22.092Z,23.52
2023-03-14T15:40:49.463Z,21.80
2023-03-14T15:43:16.739Z,21.72
2023-03-14T15:45:44.112Z,21.05
2023-03-14T15:48:16.639Z,20.83
2023-03-14T15:50:44.558Z,20.41
2023-03-14T15:53:12.084Z,19.80
2023-03-14T15:55:39.137Z,19.70
2023-03-14T15:58:06.405Z,20.26
2023-03-14T16:00:33.396Z,20.56
2023-03-14T16:03:00.236Z,20.35
2023-03-14T16:05:27.205Z,20.19
2023-03-14T16:07:54.096Z,20.47
2023-03-14T16:10:20.972Z,20.27
2023-03-14T16:12:47.910Z,20.09
2023-03-14T16:15:14.884Z,19.77
2023-03-14T16:17:43.746Z,19.70
2023-03-14T16:20:12.024Z,19.58
2023-03-14T16:22:39.444Z,19.58
2023-03-14T16:25:07.877Z,19.47
2023-03-14T16:27:34.824Z,19.03
2023-03-14T16:30:01.827Z,18.88
2023-03-14T16:32:29.433Z,18.79
2023-03-14T16:34:56.457Z,18.72
2023-03-14T16:37:27.686Z,18.31
2023-03-14T16:43:05.324Z,18.33
2023-03-14T16:45:29.202Z,18.11
2023-03-14T16:47:56.624Z,18.05
2023-03-14T16:50:23.692Z,17.91
2023-03-14T16:52:50.519Z,17.88
2023-03-14T16:55:17.496Z,17.65
2023-03-14T16:57:44.326Z,17.50
2023-03-14T17:00:12.301Z,17.57
2023-03-14T17:02:39.305Z,17.44
2023-03-14T17:05:06.796Z,17.34
2023-03-14T17:07:33.664Z,17.28
2023-03-14T17:10:00.564Z,17.25
2023-03-14T17:12:27.396Z,17.19
2023-03-14T17:14:55.491Z,17.07
2023-03-14T17:17:22.449Z,17.20
2023-03-14T17:19:49.414Z,17.10
2023-03-14T17:22:25.994Z,17.19
2023-03-14T17:24:55.114Z,17.31
2023-03-14T17:27:22.018Z,17.53
2023-03-14T17:29:49.487Z,17.57
2023-03-14T17:32:17.235Z,17.74
2023-03-14T17:34:44.236Z,17.78
2023-03-14T17:37:11.399Z,17.66
2023-03-14T17:39:39.587Z,17.79
2023-03-14T17:42:07.305Z,17.86
2023-03-14T17:44:34.994Z,17.93
2023-03-14T17:47:05.656Z,18.02
2023-03-14T17:49:35.358Z,17.90
2023-03-14T17:52:02.271Z,17.82
2023-03-14T17:54:29.342Z,17.76
2023-03-14T17:56:57.286Z,17.73
2023-03-14T17:59:25.111Z,17.57
2023-03-14T18:01:52.536Z,17.50
2023-03-14T18:04:20.564Z,17.52
2023-03-14T18:06:47.473Z,17.23
2023-03-14T18:09:14.695Z,17.09
2023-03-14T18:11:41.667Z,16.80
2023-03-14T18:14:08.717Z,16.87
2023-03-14T18:16:35.759Z,16.76
2023-03-14T18:19:03.140Z,16.82
2023-03-14T18:21:31.148Z,16.73
2023-03-14T18:23:58.217Z,16.70
2023-03-14T18:26:25.926Z,16.77
2023-03-14T18:28:52.914Z,16.88
2023-03-14T18:31:22.554Z,16.90
2023-03-14T18:33:49.808Z,16.93
2023-03-14T18:36:17.354Z,16.96
2023-03-14T18:38:46.225Z,17.13
2023-03-14T18:41:15.530Z,17.10
2023-03-14T18:43:43.285Z,17.20
2023-03-14T18:46:14.218Z,17.13
2023-03-14T18:48:44.529Z,17.11
2023-03-14T18:51:15.578Z,17.22
2023-03-14T18:53:43.543Z,17.21
2023-03-14T18:56:14.489Z,17.24
2023-03-14T18:58:41.799Z,17.15
2023-03-14T19:01:10.519Z,17.11
2023-03-14T19:03:37.803Z,17.22
2023-03-14T19:06:07.786Z,17.18
2023-03-14T19:08:36.299Z,17.11
2023-03-14T19:11:05.380Z,17.02
2023-03-14T19:13:34.987Z,16.90
2023-03-14T19:16:02.307Z,16.90
2023-03-14T19:18:29.246Z,16.86
2023-03-14T19:21:00.726Z,16.88
2023-03-14T19:23:28.134Z,16.80
2023-03-14T19:25:56.433Z,16.84
2023-03-14T19:28:24.417Z,16.86
2023-03-14T19:30:52.104Z,16.86
2023-03-14T19:33:19.732Z,16.79
2023-03-14T19:35:47.519Z,16.80
2023-03-14T19:38:15.058Z,16.82
2023-03-14T19:40:45.025Z,16.83
2023-03-14T19:43:12.419Z,16.83
2023-03-14T19:45:39.698Z,16.80
2023-03-14T19:48:07.143Z,16.86
2023-03-14T19:50:35.308Z,16.84
2023-03-14T19:53:04.270Z,16.79
2023-03-14T19:55:35.566Z,16.79
2023-03-14T19:58:02.517Z,16.90
2023-03-14T20:00:30.029Z,16.80
2023-03-14T20:02:57.112Z,16.64
2023-03-14T20:05:24.784Z,16.82
2023-03-14T20:07:52.005Z,16.92
2023-03-14T20:10:23.090Z,16.97
2023-03-14T20:12:51.417Z,17.02
2023-03-14T20:15:20.371Z,16.96
2023-03-14T20:17:51.706Z,17.06
2023-03-14T20:20:19.975Z,17.01
2023-03-14T20:22:47.984Z,17.02
2023-03-14T20:25:22.612Z,17.04
2023-03-14T20:27:52.012Z,17.06
2023-03-14T20:30:21.681Z,16.99
2023-03-14T20:32:51.059Z,17.08
2023-03-14T20:35:24.585Z,16.98
2023-03-14T20:37:58.381Z,17.00
2023-03-14T20:40:30.507Z,16.92
2023-03-14T20:42:57.470Z,16.85
2023-03-14T20:45:24.662Z,16.86
2023-03-14T20:47:51.718Z,16.75
2023-03-14T20:50:18.869Z,16.79
2023-03-14T20:52:46.331Z,16.73
2023-03-14T20:55:13.301Z,16.74
2023-03-14T20:57:40.211Z,16.78
2023-03-14T21:00:08.046Z,16.85
2023-03-14T21:02:35.320Z,16.87
2023-03-14T21:05:02.742Z,16.90
2023-03-14T21:07:33.561Z,16.92
2023-03-14T21:10:00.613Z,16.96
2023-03-14T21:12:27.467Z,16.99
2023-03-14T21:14:54.436Z,16.99
2023-03-14T21:17:21.359Z,16.99
2023-03-14T21:19:48.139Z,16.99
2023-03-14T21:22:18.625Z,16.95
2023-03-14T21:24:46.184Z,16.93
2023-03-14T21:27:13.041Z,16.92
2023-03-14T21:29:50.701Z,16.92
2023-03-14T21:32:17.978Z,16.95
2023-03-14T21:34:45.005Z,16.97
2023-03-14T21:37:15.180Z,16.98
2023-03-14T21:39:42.821Z,16.98
2023-03-14T21:42:09.954Z,16.97
2023-03-14T21:44:37.456Z,17.01
2023-03-14T21:47:08.498Z,17.06
2023-03-14T21:49:39.659Z,17.02
2023-03-14T21:52:12.071Z,16.99
2023-03-14T21:54:40.111Z,17.00
2023-03-14T21:57:07.499Z,17.02
2023-03-14T21:59:36.440Z,16.96
2023-03-14T22:02:06.568Z,16.99
2023-03-14T22:04:37.344Z,16.97
2023-03-14T22:07:10.523Z,16.98
2023-03-14T22:09:43.662Z,16.96
2023-03-14T22:12:17.318Z,16.97
2023-03-14T22:14:44.277Z,16.97
2023-03-14T22:17:11.088Z,16.93
2023-03-14T22:19:38.039Z,16.96
2023-03-14T22:22:05.116Z,16.94
2023-03-14T22:24:32.073Z,16.91
2023-03-14T22:27:00.673Z,16.89
2023-03-14T22:29:27.969Z,16.86
2023-03-14T22:31:55.947Z,16.86
2023-03-14T22:34:23.080Z,16.82
2023-03-14T22:36:49.881Z,16.80
2023-03-14T22:39:17.214Z,16.74
2023-03-14T22:41:44.071Z,16.73
2023-03-14T22:44:10.926Z,16.69
2023-03-14T22:46:37.890Z,16.69
2023-03-14T22:49:04.727Z,16.66
2023-03-14T22:51:31.595Z,16.65
2023-03-14T22:53:58.468Z,16.63
2023-03-14T22:56:25.305Z,16.60
2023-03-14T22:58:52.489Z,16.58
2023-03-14T23:01:19.442Z,16.57
2023-03-14T23:03:46.411Z,16.53
2023-03-14T23:06:13.712Z,16.52
2023-03-14T23:08:41.715Z,16.51
2023-03-14T23:11:08.842Z,16.45
2023-03-14T23:13:36.326Z,16.42
2023-03-14T23:16:03.230Z,16.38
2023-03-14T23:18:30.158Z,16.32
2023-03-14T23:21:15.204Z,16.30
2023-03-14T23:23:42.618Z,16.24
2023-03-14T23:26:11.913Z,16.22
2023-03-14T23:28:38.872Z,16.20
2023-03-14T23:31:08.748Z,16.22
2023-03-14T23:33:37.414Z,16.18
2023-03-14T23:36:05.219Z,16.09
2023-03-14T23:38:33.023Z,16.07
2023-03-14T23:41:01.072Z,16.07
2023-03-14T23:43:29.308Z,16.05
2023-03-14T23:45:57.538Z,16.05
2023-03-14T23:48:27.291Z,16.02
2023-03-14T23:50:59.120Z,15.99
2023-03-14T23:53:27.733Z,15.97
2023-03-14T23:55:55.355Z,15.93
2023-03-14T23:58:22.697Z,15.95
